Time;durP1;ratioP1;P1;durP2;ratioP2;P2;SDS_P1;SDS_P2;PMS_P1;PMS_P2;Temp;Humidity;BMP_temperature;BMP_pressure;BME280_temperature;BME280_humidity;BME280_pressure;Samples;Min_cycle;Max_cycle;Signal;HPM_P1;HPM_P2
2021/06/15 00:01:08;;;;;;;11.17;7.70;;;;;;;15.85;53.78;100393.27;126886;1089;102895;-80
2021/06/15 00:03:56;;;;;;;11.77;7.37;;;;;;;15.82;53.66;100396.92;126888;1089;102920;-80
2021/06/15 00:06:44;;;;;;;13.50;7.65;;;;;;;15.80;53.75;100390.89;126687;1090;114321;-80
2021/06/15 00:09:32;;;;;;;12.63;7.30;;;;;;;15.76;53.73;100389.32;126730;1090;102994;-80
2021/06/15 00:12:21;;;;;;;17.30;9.87;;;;;;;15.74;53.89;100388.55;126684;1088;114306;-80
2021/06/15 00:15:11;;;;;;;10.40;6.57;;;;;;;15.71;54.15;100391.34;126775;1090;102895;-80
2021/06/15 00:17:59;;;;;;;11.17;7.57;;;;;;;15.68;53.77;100380.98;126740;1090;114903;-80
2021/06/15 00:20:49;;;;;;;10.07;7.50;;;;;;;15.66;53.88;100386.33;126852;1089;102852;-80
2021/06/15 00:23:38;;;;;;;11.23;7.07;;;;;;;15.65;54.00;100389.89;126744;1088;113110;-80
2021/06/15 00:26:26;;;;;;;14.63;8.10;;;;;;;15.62;53.86;100392.67;126822;1090;101096;-80
2021/06/15 00:29:14;;;;;;;11.57;7.83;;;;;;;15.60;54.19;100380.51;126680;1090;114454;-80
2021/06/15 00:32:04;;;;;;;15.73;8.73;;;;;;;15.58;54.29;100382.34;126835;1090;103081;-80
2021/06/15 00:34:54;;;;;;;11.27;7.67;;;;;;;15.56;54.41;100373.68;126733;1090;114528;-80
2021/06/15 00:37:41;;;;;;;15.53;9.10;;;;;;;15.54;54.52;100379.02;126796;1090;102958;-79
2021/06/15 00:40:31;;;;;;;12.27;8.33;;;;;;;15.49;54.49;100378.41;126845;1090;113598;-80
2021/06/15 00:43:19;;;;;;;12.57;8.13;;;;;;;15.44;54.57;100390.94;126799;1089;101818;-80
2021/06/15 00:46:07;;;;;;;12.43;8.67;;;;;;;15.37;54.84;100386.89;126740;1090;102654;-80
2021/06/15 00:48:56;;;;;;;11.87;8.13;;;;;;;15.31;55.11;100389.84;126798;1088;114114;-80
2021/06/15 00:51:45;;;;;;;12.37;8.67;;;;;;;15.29;55.10;100389.06;126776;1089;103041;-80
2021/06/15 00:54:34;;;;;;;12.40;8.17;;;;;;;15.24;55.17;100388.42;126826;1090;114473;-80
2021/06/15 00:57:26;;;;;;;15.00;9.43;;;;;;;15.22;55.15;100390.27;126864;1090;102895;-80
2021/06/15 01:00:14;;;;;;;11.87;7.30;;;;;;;15.20;55.50;100384.25;126736;1090;114789;-80
2021/06/15 01:03:05;;;;;;;12.37;8.43;;;;;;;15.16;55.16;100380.92;126948;1089;102921;-80
2021/06/15 01:05:55;;;;;;;14.40;8.80;;;;;;;15.14;55.29;100374.90;126813;1089;114443;-80
2021/06/15 01:08:53;;;;;;;10.30;7.60;;;;;;;15.13;55.52;100374.98;126907;1090;101891;-80
2021/06/15 01:12:00;;;;;;;12.23;8.57;;;;;;;15.09;55.32;100372.50;126881;1089;114276;-80
2021/06/15 01:15:09;;;;;;;9.73;6.97;;;;;;;15.07;55.75;100369.07;126862;1090;102997;-79
2021/06/15 01:18:01;;;;;;;11.10;8.13;;;;;;;15.06;55.58;100363.89;126764;1090;114254;-79
2021/06/15 01:21:18;;;;;;;11.27;8.00;;;;;;;15.04;55.54;100361.34;126892;1090;102998;-80
2021/06/15 01:24:43;;;;;;;11.60;7.33;;;;;;;15.01;55.54;100356.25;126805;1089;114625;-80
2021/06/15 01:27:54;;;;;;;11.15;8.10;;;;;;;15.00;55.55;100359.80;126879;1090;102888;-81
2021/06/15 01:31:10;;;;;;;12.53;7.73;;;;;;;14.99;55.67;100362.50;126687;1090;114264;-81
2021/06/15 01:34:08;;;;;;;14.20;8.13;;;;;;;14.97;55.80;100367.83;126925;1090;102948;-81
2021/06/15 01:37:20;;;;;;;10.87;7.77;;;;;;;14.94;55.49;100362.73;126848;1089;114319;-81
2021/06/15 01:40:13;;;;;;;11.10;7.63;;;;;;;14.93;55.74;100360.19;126843;1088;103033;-81
2021/06/15 01:43:24;;;;;;;11.30;7.60;;;;;;;14.89;56.15;100364.70;126911;1090;101702;-81
2021/06/15 01:46:19;;;;;;;9.73;7.57;;;;;;;14.86;56.03;100361.38;126930;1089;103045;-81
2021/06/15 01:49:14;;;;;;;11.13;8.20;;;;;;;14.80;56.33;100363.39;126817;1089;113252;-79
2021/06/15 01:52:04;;;;;;;10.93;7.77;;;;;;;14.77;56.18;100373.19;126771;1090;103280;-81
2021/06/15 01:54:54;;;;;;;11.40;7.83;;;;;;;14.75;56.15;100375.05;126791;1088;114586;-81
2021/06/15 01:57:44;;;;;;;14.33;8.47;;;;;;;14.73;55.98;100375.12;126838;1089;102902;-81
2021/06/15 02:00:35;;;;;;;11.47;8.30;;;;;;;14.71;55.92;100384.81;126661;1090;115776;-81
2021/06/15 02:03:26;;;;;;;11.97;7.03;;;;;;;14.69;55.87;100389.28;126943;1090;102902;-81
2021/06/15 02:06:20;;;;;;;12.33;8.17;;;;;;;14.68;56.27;100394.61;126741;1090;114509;-81
2021/06/15 02:09:11;;;;;;;12.73;8.13;;;;;;;14.65;56.29;100395.61;126884;1090;103024;-81
2021/06/15 02:12:44;;;;;;;13.05;8.58;;;;;;;14.65;56.20;100389.51;126546;1092;113245;-80
2021/06/15 02:15:54;;;;;;;10.70;7.30;;;;;;;14.65;56.06;100385.11;126534;1093;102882;-80
2021/06/15 02:19:02;;;;;;;11.17;7.80;;;;;;;14.65;55.95;100384.26;126829;1090;114432;-80
2021/06/15 02:22:12;;;;;;;11.97;7.77;;;;;;;14.63;55.52;100380.86;126914;1090;102696;-80
2021/06/15 02:25:03;;;;;;;12.90;8.00;;;;;;;14.65;55.69;100379.01;126662;1089;114575;-80
2021/06/15 02:27:54;;;;;;;13.23;8.13;;;;;;;14.66;55.68;100388.58;126862;1089;102994;-80
2021/06/15 02:30:42;;;;;;;13.23;8.20;;;;;;;14.65;55.60;100381.63;126897;1089;114874;-80
2021/06/15 02:33:37;;;;;;;12.83;8.77;;;;;;;14.65;55.69;100384.26;126872;1090;103082;-80
2021/06/15 02:36:30;;;;;;;10.97;7.30;;;;;;;14.66;55.85;100388.58;126733;1089;114955;-80
2021/06/15 02:39:33;;;;;;;12.40;8.90;;;;;;;14.66;55.61;100386.81;126784;1088;102873;-80
2021/06/15 02:42:23;;;;;;;12.73;8.50;;;;;;;14.67;55.62;100383.26;126764;1089;113387;-79
2021/06/15 02:45:16;;;;;;;10.73;7.27;;;;;;;14.69;55.39;100384.03;126667;1088;102789;-79
2021/06/15 02:48:07;;;;;;;14.17;9.13;;;;;;;14.71;55.76;100381.34;126736;1089;114630;-81
2021/06/15 02:51:15;;;;;;;11.87;7.97;;;;;;;14.71;55.80;100395.31;126844;1090;103543;-81
2021/06/15 02:54:12;;;;;;;12.20;8.30;;;;;;;14.71;55.57;100391.84;126703;1090;114374;-81
2021/06/15 02:57:02;;;;;;;;;;;;;;;14.70;55.62;100395.39;126875;1089;102879;-81
2021/06/15 02:59:50;;;;;;;14.95;7.58;;;;;;;14.70;55.63;100398.02;126831;1088;103402;-81
2021/06/15 03:02:38;;;;;;;11.83;7.43;;;;;;;14.69;55.44;100397.16;126796;1089;101814;-81
2021/06/15 03:05:27;;;;;;;9.43;7.20;;;;;;;14.72;55.42;100396.16;126903;1089;114521;-81
2021/06/15 03:08:16;;;;;;;9.40;6.80;;;;;;;14.73;55.43;100392.64;126816;1089;105325;-81
2021/06/15 03:11:06;;;;;;;12.47;7.43;;;;;;;14.75;55.46;100396.05;126738;1090;114401;-81
2021/06/15 03:14:07;;;;;;;10.93;6.70;;;;;;;14.78;55.52;100395.90;126826;1090;102963;-81
2021/06/15 03:17:09;;;;;;;9.90;6.40;;;;;;;14.79;55.22;100393.20;126766;1090;102891;-80
2021/06/15 03:20:07;;;;;;;13.57;7.40;;;;;;;14.83;55.27;100396.52;126737;1088;102956;-81
2021/06/15 03:23:48;;;;;;;10.30;7.00;;;;;;;14.88;55.53;100396.30;126808;1090;102863;-81
2021/06/15 03:27:01;;;;;;;12.20;8.07;;;;;;;14.93;55.18;100399.58;126616;1093;102924;-81
2021/06/15 03:29:50;;;;;;;14.13;8.00;;;;;;;14.98;55.00;100397.58;126455;1093;102967;-79
2021/06/15 03:32:50;;;;;;;12.33;8.30;;;;;;;15.03;54.88;100395.57;126406;1092;102988;-79
2021/06/15 03:35:42;;;;;;;12.47;6.87;;;;;;;15.06;54.92;100404.14;126579;1092;103009;-79
2021/06/15 03:38:35;;;;;;;13.10;7.60;;;;;;;15.08;54.79;100391.81;126415;1093;114515;-80
2021/06/15 03:41:25;;;;;;;12.07;7.30;;;;;;;15.11;54.57;100396.92;126586;1093;102858;-79
2021/06/15 03:44:14;;;;;;;9.23;7.13;;;;;;;15.16;54.61;100398.47;126449;1093;114502;-79
2021/06/15 03:47:05;;;;;;;10.20;6.77;;;;;;;15.21;54.86;100405.19;126506;1093;103133;-80
2021/06/15 03:49:55;;;;;;;10.13;6.90;;;;;;;15.28;54.51;100400.50;126526;1092;114547;-80
2021/06/15 03:52:44;;;;;;;12.80;7.40;;;;;;;15.31;54.03;100402.98;126786;1093;102887;-80
2021/06/15 03:55:33;;;;;;;11.73;7.57;;;;;;;15.33;54.49;100403.75;126357;1093;113574;-80
2021/06/15 03:58:22;;;;;;;10.23;7.67;;;;;;;15.36;54.13;100403.59;126353;1091;103080;-80
2021/06/15 04:01:13;;;;;;;13.47;7.77;;;;;;;15.41;54.25;100402.43;126547;1093;114317;-80
2021/06/15 04:04:06;;;;;;;12.23;7.70;;;;;;;15.46;54.11;100398.75;126619;1090;102873;-80
2021/06/15 04:06:56;;;;;;;11.20;6.93;;;;;;;15.51;54.20;100402.84;126737;1089;114754;-80
2021/06/15 04:09:47;;;;;;;11.67;7.57;;;;;;;15.54;54.11;100392.16;126926;1090;102875;-80
2021/06/15 04:12:35;;;;;;;12.53;8.73;;;;;;;15.59;53.85;100395.44;126771;1089;113369;-80
2021/06/15 04:15:27;;;;;;;13.70;8.77;;;;;;;15.67;53.91;100398.55;126975;1090;102958;-80
2021/06/15 04:18:19;;;;;;;14.55;9.50;;;;;;;15.75;53.83;100402.55;126723;1090;103065;-80
2021/06/15 04:21:09;;;;;;;11.63;8.07;;;;;;;15.79;53.78;100390.94;126870;1089;100561;-80
2021/06/15 04:24:02;;;;;;;9.97;7.60;;;;;;;15.82;53.81;100396.06;126770;1090;102894;-80
2021/06/15 04:26:53;;;;;;;14.87;8.77;;;;;;;15.84;53.73;100395.05;126631;1090;114217;-80
2021/06/15 04:29:43;;;;;;;13.77;8.70;;;;;;;15.89;53.58;100397.44;126870;1090;102927;-80
2021/06/15 04:32:45;;;;;;;12.87;8.00;;;;;;;15.94;53.83;100395.41;126625;1090;114290;-80
2021/06/15 04:35:46;;;;;;;12.03;8.50;;;;;;;15.99;53.79;100402.16;126902;1088;102885;-79
2021/06/15 04:38:47;;;;;;;14.43;8.23;;;;;;;16.08;53.76;100399.97;126700;1090;114383;-80
2021/06/15 04:41:56;;;;;;;10.03;7.70;;;;;;;16.14;53.70;100395.22;126799;1089;103562;-79
2021/06/15 04:44:50;;;;;;;14.57;8.63;;;;;;;16.22;53.90;100394.83;126754;1090;113547;-79
2021/06/15 04:47:45;;;;;;;12.87;8.80;;;;;;;16.27;53.79;100398.91;126807;1090;102946;-79
2021/06/15 04:50:34;;;;;;;12.27;8.47;;;;;;;16.36;53.83;100407.27;126749;1090;114316;-80
2021/06/15 04:53:22;;;;;;;11.87;8.50;;;;;;;16.46;53.60;100403.19;126924;1089;101869;-80
2021/06/15 04:56:11;;;;;;;;;;;;;;;16.55;53.61;100402.70;126689;1090;114440;-80
2021/06/15 04:59:01;;;;;;;13.83;9.30;;;;;;;16.68;53.67;100402.89;126914;1090;102847;-80
2021/06/15 05:01:49;;;;;;;16.43;9.33;;;;;;;16.82;52.97;100401.20;126769;1089;114560;-81
2021/06/15 05:04:39;;;;;;;13.20;8.65;;;;;;;16.98;52.99;100410.90;126873;1090;102950;-81
2021/06/15 05:07:27;;;;;;;18.23;11.00;;;;;;;17.15;52.78;100405.53;126788;1089;114735;-80
2021/06/15 05:10:18;;;;;;;13.83;8.93;;;;;;;17.27;52.42;100412.75;126866;1090;101251;-80
2021/06/15 05:13:10;;;;;;;14.83;9.33;;;;;;;17.37;52.52;100418.33;126723;1088;114578;-81
2021/06/15 05:16:01;;;;;;;13.70;9.40;;;;;;;17.48;52.43;100422.05;127001;1089;102669;-81
2021/06/15 05:18:50;;;;;;;15.30;9.13;;;;;;;17.65;52.21;100412.31;126839;1090;113475;-80
2021/06/15 05:21:50;;;;;;;16.87;11.93;;;;;;;17.88;51.94;100414.46;127030;1090;102954;-80
2021/06/15 05:24:55;;;;;;;15.60;10.00;;;;;;;18.21;51.71;100426.58;126940;1089;102858;-81
2021/06/15 05:27:43;;;;;;;12.37;9.07;;;;;;;18.58;51.32;100415.44;126894;1090;104600;-80
2021/06/15 05:30:31;;;;;;;13.57;9.70;;;;;;;18.91;50.77;100424.86;127000;1090;102964;-80
2021/06/15 05:33:19;;;;;;;13.23;8.93;;;;;;;19.23;50.25;100414.86;126813;1089;114264;-80
2021/06/15 05:36:07;;;;;;;;;;;;;;;19.47;49.63;100420.32;126890;1089;102850;-80
2021/06/15 05:38:55;;;;;;;13.67;8.73;;;;;;;19.75;49.25;100422.86;126649;1089;102837;-80
2021/06/15 05:41:43;;;;;;;13.47;8.50;;;;;;;20.10;49.10;100425.73;126875;1088;102958;-80
2021/06/15 05:44:31;;;;;;;12.47;8.13;;;;;;;20.42;48.60;100422.69;126724;1089;114625;-80
2021/06/15 05:47:19;;;;;;;12.37;8.57;;;;;;;20.77;48.03;100421.03;126912;1089;102871;-81
2021/06/15 05:50:07;;;;;;;13.53;8.23;;;;;;;21.07;47.44;100417.97;126879;1089;114542;-81
2021/06/15 05:52:56;;;;;;;14.60;8.10;;;;;;;21.50;46.76;100417.47;126828;1090;101706;-81
2021/06/15 05:55:45;;;;;;;14.23;9.20;;;;;;;21.74;45.80;100417.45;126852;1090;114699;-81
2021/06/15 05:58:32;;;;;;;14.63;8.10;;;;;;;22.28;45.90;100420.36;126874;1089;103428;-81
2021/06/15 06:01:20;;;;;;;15.00;8.23;;;;;;;23.76;43.89;100420.79;126705;1090;113491;-80
2021/06/15 06:04:11;;;;;;;13.83;8.70;;;;;;;25.62;42.10;100417.65;126797;1090;101386;-80
2021/06/15 06:10:06;;;;;;;12.63;7.77;;;;;;;29.78;36.50;100409.42;126886;1090;102693;-81
2021/06/15 06:12:53;;;;;;;9.27;6.27;;;;;;;30.73;34.16;100409.57;127026;1090;100731;-81
2021/06/15 06:15:41;;;;;;;12.23;6.83;;;;;;;30.48;33.14;100412.31;126713;1089;114221;-81
2021/06/15 06:18:30;;;;;;;11.77;8.37;;;;;;;30.17;32.49;100406.89;126770;1090;102999;-81
2021/06/15 06:21:19;;;;;;;9.37;6.97;;;;;;;30.25;32.21;100406.02;126738;1089;114618;-81
2021/06/15 06:24:07;;;;;;;8.70;6.27;;;;;;;30.18;31.89;100399.66;126863;1089;103036;-81
2021/06/15 06:26:55;;;;;;;7.87;5.80;;;;;;;30.98;31.34;100409.25;126731;1090;114230;-81
2021/06/15 06:29:43;;;;;;;9.83;6.40;;;;;;;31.74;30.21;100398.63;126888;1090;102845;-81
2021/06/15 06:32:31;;;;;;;9.50;6.90;;;;;;;31.76;29.40;100396.58;126897;1089;114568;-81
2021/06/15 06:35:19;;;;;;;11.37;6.27;;;;;;;31.67;29.16;100398.50;126957;1088;102978;-81
2021/06/15 06:38:07;;;;;;;9.70;6.83;;;;;;;31.12;29.09;100404.97;126607;1089;114219;-81
2021/06/15 06:40:54;;;;;;;9.07;5.93;;;;;;;31.18;29.00;100409.66;126809;1089;102863;-81
2021/06/15 06:43:42;;;;;;;10.10;6.03;;;;;;;32.15;28.78;100402.61;126765;1089;114570;-81
2021/06/15 06:46:31;;;;;;;7.70;5.63;;;;;;;32.61;27.41;100404.28;126842;1090;103049;-80
2021/06/15 06:49:19;;;;;;;8.27;5.97;;;;;;;32.36;27.39;100401.89;126822;1090;113344;-81
2021/06/15 06:52:06;;;;;;;10.67;6.50;;;;;;;32.28;27.55;100401.97;126961;1090;103104;-80
2021/06/15 06:54:55;;;;;;;9.33;6.10;;;;;;;32.93;27.17;100401.17;126804;1088;114495;-80
2021/06/15 06:57:43;;;;;;;8.37;5.60;;;;;;;33.39;26.78;100394.59;126947;1088;102857;-80
2021/06/15 07:00:31;;;;;;;13.07;6.67;;;;;;;33.88;26.03;100394.61;126780;1090;114579;-81
2021/06/15 07:03:19;;;;;;;9.70;6.43;;;;;;;34.60;25.16;100394.22;126804;1089;103146;-81
2021/06/15 07:06:07;;;;;;;8.43;6.83;;;;;;;35.30;25.09;100387.56;126710;1089;114537;-81
2021/06/15 07:08:55;;;;;;;13.53;9.20;;;;;;;35.98;23.91;100387.39;126903;1090;102871;-81
2021/06/15 07:11:42;;;;;;;12.20;6.03;;;;;;;36.65;23.13;100382.63;126811;1089;102916;-79
2021/06/15 07:14:31;;;;;;;9.47;5.63;;;;;;;37.01;21.67;100379.33;126665;1090;114296;-81
2021/06/15 07:17:18;;;;;;;8.20;6.03;;;;;;;36.90;22.30;100387.11;126809;1090;103077;-81
2021/06/15 07:20:09;;;;;;;8.50;5.73;;;;;;;36.60;21.61;100381.36;126798;1090;114071;-81
2021/06/15 07:22:57;;;;;;;9.27;6.00;;;;;;;35.98;22.32;100399.09;126746;1089;102924;-79
2021/06/15 07:25:45;;;;;;;8.53;5.60;;;;;;;35.30;22.63;100395.70;126682;1089;114487;-79
2021/06/15 07:28:34;;;;;;;7.90;6.03;;;;;;;34.69;22.54;100393.02;126771;1090;102869;-79
2021/06/15 07:31:21;;;;;;;10.25;6.60;;;;;;;34.33;23.10;100392.41;126838;1089;113126;-79
2021/06/15 07:34:09;;;;;;;11.30;7.63;;;;;;;33.93;23.49;100387.60;126884;1090;102949;-80
2021/06/15 07:36:57;;;;;;;9.88;5.60;;;;;;;33.52;23.53;100384.73;126846;1090;113232;-79
2021/06/15 07:39:44;;;;;;;9.87;6.43;;;;;;;33.05;23.48;100393.42;126747;1090;103431;-79
2021/06/15 07:42:32;;;;;;;10.53;7.03;;;;;;;32.72;24.17;100382.20;126815;1088;114281;-80
2021/06/15 07:45:21;;;;;;;9.13;6.30;;;;;;;32.54;24.48;100373.67;126781;1089;102964;-80
2021/06/15 07:48:09;;;;;;;11.10;6.53;;;;;;;32.48;24.35;100386.04;126897;1089;113290;-80
2021/06/15 07:50:57;;;;;;;11.53;8.70;;;;;;;32.72;24.90;100390.30;126951;1090;102876;-81
2021/06/15 07:53:44;;;;;;;12.00;6.63;;;;;;;33.42;23.68;100383.41;126872;1088;102831;-80
2021/06/15 07:56:32;;;;;;;8.33;5.70;;;;;;;33.84;23.58;100382.49;126828;1090;114304;-80
2021/06/15 07:59:20;;;;;;;9.10;5.50;;;;;;;34.15;23.65;100382.11;126908;1089;102846;-80
2021/06/15 08:02:08;;;;;;;8.10;6.07;;;;;;;34.39;23.42;100387.05;126720;1090;113549;-80
2021/06/15 08:04:56;;;;;;;7.37;5.33;;;;;;;34.53;22.55;100385.25;126940;1089;102843;-82
2021/06/15 08:07:49;;;;;;;10.57;6.63;;;;;;;34.43;22.41;100382.89;126853;1089;114376;-81
2021/06/15 08:10:37;;;;;;;9.70;6.73;;;;;;;34.09;22.82;100374.77;126938;1090;103822;-81
2021/06/15 08:13:24;;;;;;;9.60;6.17;;;;;;;33.50;23.01;100377.85;126670;1089;113208;-80
2021/06/15 08:16:13;;;;;;;8.33;5.90;;;;;;;32.98;23.10;100379.81;126891;1089;103086;-80
2021/06/15 08:19:00;;;;;;;10.80;5.80;;;;;;;32.62;23.60;100381.65;126706;1090;114362;-80
2021/06/15 08:21:48;;;;;;;8.87;5.67;;;;;;;32.63;23.31;100378.76;126872;1089;103032;-80
2021/06/15 08:24:36;;;;;;;9.03;6.00;;;;;;;32.45;23.65;100372.92;126716;1090;114412;-80
2021/06/15 08:27:23;;;;;;;8.07;5.43;;;;;;;32.28;23.98;100380.38;126903;1089;102910;-81
2021/06/15 08:30:12;;;;;;;9.70;5.67;;;;;;;32.18;23.31;100373.58;126714;1088;114466;-80
2021/06/15 08:32:59;;;;;;;7.93;5.40;;;;;;;32.15;23.40;100377.48;126831;1089;102858;-80
2021/06/15 08:35:48;;;;;;;8.63;5.00;;;;;;;32.17;23.45;100367.34;126828;1090;104124;-80
2021/06/15 08:38:35;;;;;;;7.90;5.23;;;;;;;32.48;23.35;100363.61;126696;1089;114123;-80
2021/06/15 08:41:23;;;;;;;10.67;6.50;;;;;;;32.92;23.04;100371.66;126791;1090;102998;-80
2021/06/15 08:44:11;;;;;;;10.27;5.20;;;;;;;33.41;22.60;100365.52;126696;1090;114597;-80
2021/06/15 08:46:59;;;;;;;10.30;6.75;;;;;;;34.16;22.24;100368.38;126805;1090;102972;-80
2021/06/15 08:49:47;;;;;;;8.47;5.63;;;;;;;34.96;22.04;100368.73;126794;1089;113827;-80
2021/06/15 08:52:36;;;;;;;10.07;5.47;;;;;;;35.61;21.27;100364.45;126985;1088;103402;-80
2021/06/15 08:55:33;;;;;;;8.87;6.00;;;;;;;36.36;21.25;100363.09;126837;1088;114626;-80
2021/06/15 08:58:56;;;;;;;9.45;5.80;;;;;;;36.90;21.29;100362.64;126851;1090;103012;-80
2021/06/15 09:01:47;;;;;;;9.00;6.20;;;;;;;37.28;20.08;100371.83;126699;1089;114380;-80
2021/06/15 09:04:35;;;;;;;9.67;7.10;;;;;;;37.44;20.28;100360.41;126853;1088;102980;-81
2021/06/15 09:07:23;;;;;;;8.37;6.30;;;;;;;37.60;19.05;100369.90;126742;1090;114188;-81
2021/06/15 09:10:48;;;;;;;11.17;5.80;;;;;;;37.38;19.50;100361.30;126835;1090;102915;-81
2021/06/15 09:13:39;;;;;;;9.50;6.30;;;;;;;37.32;19.62;100373.88;126815;1090;114277;-81
2021/06/15 09:16:36;;;;;;;8.17;5.70;;;;;;;37.13;19.79;100370.22;126822;1090;102657;-81
2021/06/15 09:19:25;;;;;;;12.17;6.90;;;;;;;36.98;19.30;100377.84;126748;1090;114487;-81
2021/06/15 09:22:28;;;;;;;9.87;6.80;;;;;;;36.76;19.76;100373.77;126937;1089;100727;-80
2021/06/15 09:25:16;;;;;;;12.77;9.30;;;;;;;36.56;19.83;100368.44;126869;1090;114429;-80
2021/06/15 09:28:22;;;;;;;9.50;6.53;;;;;;;36.27;19.77;100367.08;126877;1090;103546;-81
2021/06/15 09:31:10;;;;;;;8.30;5.40;;;;;;;35.85;19.77;100371.95;126726;1090;113231;-81
2021/06/15 09:33:57;;;;;;;9.17;5.00;;;;;;;35.43;19.48;100368.63;126898;1090;102930;-81
2021/06/15 09:36:52;;;;;;;9.43;6.43;;;;;;;35.40;19.88;100365.50;126783;1090;114574;-81
2021/06/15 09:39:40;;;;;;;9.87;6.60;;;;;;;35.42;20.29;100363.41;126861;1090;103185;-81
2021/06/15 09:42:29;;;;;;;9.93;6.10;;;;;;;35.32;19.84;100371.91;126887;1090;114236;-80
2021/06/15 09:45:43;;;;;;;9.77;6.10;;;;;;;35.09;20.18;100361.47;127018;1088;102950;-80
2021/06/15 09:48:37;;;;;;;9.87;6.83;;;;;;;35.04;20.28;100363.97;126853;1090;113272;-81
2021/06/15 09:51:25;;;;;;;8.10;6.50;;;;;;;35.03;20.63;100356.88;126993;1089;102942;-81
2021/06/15 09:54:13;;;;;;;10.15;7.50;;;;;;;34.94;20.49;100352.68;126981;1090;102954;-81
2021/06/15 09:57:00;;;;;;;10.50;6.83;;;;;;;34.80;20.47;100357.19;126932;1090;102961;-81
2021/06/15 10:00:18;;;;;;;9.27;6.30;;;;;;;34.67;21.09;100357.18;127040;1089;102991;-80
2021/06/15 10:03:06;;;;;;;11.03;6.78;;;;;;;34.80;21.01;100353.65;126757;1089;114668;-80
2021/06/15 10:05:53;;;;;;;8.50;6.77;;;;;;;35.08;21.41;100338.11;126926;1090;102984;-80
2021/06/15 10:08:45;;;;;;;9.67;6.57;;;;;;;35.31;21.24;100339.59;126795;1089;113579;-80
2021/06/15 10:11:39;;;;;;;9.27;6.20;;;;;;;35.20;20.47;100341.05;127106;1090;102991;-80
2021/06/15 10:14:28;;;;;;;7.70;5.57;;;;;;;35.28;21.13;100331.87;126810;1090;113042;-81
2021/06/15 10:17:17;;;;;;;9.00;6.13;;;;;;;35.37;20.45;100323.37;126857;1088;102866;-81
2021/06/15 10:20:05;;;;;;;12.23;7.83;;;;;;;35.44;20.43;100320.64;126777;1090;113070;-81
2021/06/15 10:22:55;;;;;;;9.00;6.90;;;;;;;35.37;20.43;100326.08;126862;1089;103015;-81
2021/06/15 10:25:43;;;;;;;11.00;6.50;;;;;;;35.14;20.11;100331.02;126731;1090;114255;-81
2021/06/15 10:28:31;;;;;;;10.37;6.10;;;;;;;34.83;20.14;100326.14;126838;1088;102870;-81
2021/06/15 10:31:30;;;;;;;9.47;5.53;;;;;;;34.57;19.88;100334.20;126865;1090;114450;-81
2021/06/15 10:34:58;;;;;;;9.30;6.20;;;;;;;34.13;20.30;100328.17;126813;1090;102855;-81
2021/06/15 10:37:47;;;;;;;9.03;5.37;;;;;;;34.03;20.70;100326.86;126824;1090;113301;-81
2021/06/15 10:40:37;;;;;;;9.33;5.20;;;;;;;33.85;20.22;100330.08;126816;1090;102952;-81
2021/06/15 10:43:56;;;;;;;9.55;5.60;;;;;;;33.45;21.52;100318.13;126678;1088;114356;-80
2021/06/15 10:46:45;;;;;;;7.10;4.80;;;;;;;33.31;20.72;100322.55;126810;1089;102975;-81
2021/06/15 10:50:00;;;;;;;7.77;5.07;;;;;;;32.84;20.78;100318.56;126758;1090;113542;-81
2021/06/15 10:53:01;;;;;;;6.67;4.73;;;;;;;32.65;21.23;100319.99;126808;1090;102711;-81
2021/06/15 10:56:02;;;;;;;9.00;6.30;;;;;;;32.76;21.79;100313.27;126747;1089;114267;-81
2021/06/15 10:59:01;;;;;;;8.93;6.00;;;;;;;32.69;22.11;100317.77;126818;1090;102922;-81
2021/06/15 11:02:09;;;;;;;9.07;6.17;;;;;;;32.55;21.44;100307.84;126805;1089;114418;-80
2021/06/15 11:05:37;;;;;;;7.30;4.70;;;;;;;32.38;21.58;100304.53;126929;1090;102914;-80
2021/06/15 11:08:27;;;;;;;7.27;4.53;;;;;;;32.34;22.01;100314.88;126701;1089;113256;-81
2021/06/15 11:11:15;;;;;;;9.53;4.77;;;;;;;32.15;21.74;100305.47;127001;1089;102847;-81
2021/06/15 11:14:06;;;;;;;12.73;6.90;;;;;;;31.95;21.93;100308.89;126749;1090;114228;-81
2021/06/15 11:16:59;;;;;;;7.30;5.20;;;;;;;31.65;22.24;100302.64;126961;1088;102898;-79
2021/06/15 11:19:47;;;;;;;9.30;5.83;;;;;;;31.69;22.54;100303.94;126756;1090;113305;-80
2021/06/15 11:22:34;;;;;;;8.60;6.17;;;;;;;31.67;22.31;100301.43;126774;1089;102888;-81
2021/06/15 11:25:45;;;;;;;10.27;5.50;;;;;;;31.42;22.75;100294.59;126698;1090;114684;-81
2021/06/15 11:28:58;;;;;;;9.53;6.00;;;;;;;31.07;22.75;100294.22;126986;1090;102970;-81
2021/06/15 11:31:46;;;;;;;8.97;5.90;;;;;;;30.94;23.10;100288.59;126842;1090;114429;-81
2021/06/15 11:34:34;;;;;;;10.63;6.37;;;;;;;30.84;23.04;100282.59;126811;1088;101346;-82
2021/06/15 11:37:23;;;;;;;8.37;5.17;;;;;;;30.70;23.04;100280.67;126721;1090;113395;-80
2021/06/15 11:40:18;;;;;;;7.80;5.43;;;;;;;30.59;23.51;100280.05;126930;1090;102884;-81
2021/06/15 11:43:09;;;;;;;10.77;6.87;;;;;;;30.32;23.81;100280.53;126891;1089;114264;-81
2021/06/15 11:46:11;;;;;;;13.17;8.43;;;;;;;30.02;23.95;100287.55;126996;1090;100977;-81
2021/06/15 11:49:18;;;;;;;7.40;5.73;;;;;;;29.75;24.40;100281.56;126823;1090;114772;-81
2021/06/15 11:52:07;;;;;;;9.20;6.27;;;;;;;29.59;24.93;100273.54;126808;1090;102987;-82
2021/06/15 11:54:55;;;;;;;10.77;5.80;;;;;;;29.57;24.41;100277.41;126923;1089;114420;-81
2021/06/15 11:57:44;;;;;;;9.97;7.37;;;;;;;29.67;25.25;100262.78;126875;1090;102879;-81
2021/06/15 12:00:38;;;;;;;7.73;6.10;;;;;;;29.78;24.41;100267.77;126885;1088;102852;-81
2021/06/15 12:03:28;;;;;;;6.93;4.97;;;;;;;29.72;24.01;100264.95;126655;1090;114201;-81
2021/06/15 12:06:20;;;;;;;8.40;5.73;;;;;;;29.79;24.20;100272.14;126963;1088;102873;-81
2021/06/15 12:09:08;;;;;;;6.10;4.67;;;;;;;29.64;24.69;100273.05;126787;1090;113822;-81
2021/06/15 12:12:00;;;;;;;7.87;5.63;;;;;;;29.57;24.86;100272.88;126832;1090;102884;-81
2021/06/15 12:14:50;;;;;;;9.00;5.00;;;;;;;29.53;24.64;100262.64;126786;1090;114542;-80
2021/06/15 12:17:48;;;;;;;11.10;8.00;;;;;;;29.35;24.36;100271.71;126940;1089;101880;-80
2021/06/15 12:20:40;;;;;;;6.67;4.70;;;;;;;29.25;24.32;100264.83;126764;1090;114364;-81
2021/06/15 12:23:36;;;;;;;10.03;5.87;;;;;;;29.28;24.30;100259.14;126922;1090;102843;-80
2021/06/15 12:26:36;;;;;;;13.03;8.33;;;;;;;29.31;25.23;100262.32;126911;1089;114318;-80
2021/06/15 12:29:24;;;;;;;9.35;6.70;;;;;;;29.43;25.46;100255.56;127017;1089;102911;-80
2021/06/15 12:32:12;;;;;;;8.40;5.73;;;;;;;29.52;25.54;100260.97;126851;1090;113040;-80
2021/06/15 12:35:15;;;;;;;6.00;5.20;;;;;;;29.51;24.97;100256.61;127033;1088;103074;-81
2021/06/15 12:38:12;;;;;;;9.53;5.73;;;;;;;29.56;25.47;100249.70;126814;1090;114257;-80
2021/06/15 12:41:05;;;;;;;9.20;6.50;;;;;;;29.73;25.33;100256.70;126943;1090;102945;-80
2021/06/15 12:43:53;;;;;;;9.80;5.30;;;;;;;29.84;25.21;100244.75;126860;1088;113165;-80
2021/06/15 12:46:43;;;;;;;7.97;6.43;;;;;;;29.86;25.03;100245.41;127016;1089;102937;-80
2021/06/15 12:49:33;;;;;;;13.53;8.90;;;;;;;29.81;24.91;100241.58;126795;1089;113241;-80
2021/06/15 12:52:30;;;;;;;7.93;5.90;;;;;;;29.71;24.77;100247.98;126912;1089;102714;-80
2021/06/15 12:55:20;;;;;;;9.27;5.40;;;;;;;29.52;24.38;100245.69;126933;1090;113174;-80
2021/06/15 12:58:11;;;;;;;7.87;5.30;;;;;;;29.44;25.25;100240.28;126908;1088;102878;-80
2021/06/15 13:00:59;;;;;;;7.47;5.40;;;;;;;29.44;25.76;100240.28;126892;1090;102916;-80
2021/06/15 13:03:52;;;;;;;8.80;5.50;;;;;;;29.48;25.46;100242.51;126842;1090;113909;-80